Time;durP1;ratioP1;P1;durP2;ratioP2;P2;SDS_P1;SDS_P2;PMS_P1;PMS_P2;Temp;Humidity;BMP_temperature;BMP_pressure;BME280_temperature;BME280_humidity;BME280_pressure;Samples;Min_cycle;Max_cycle;Signal;HPM_P1;HPM_P2
2022/04/21 00:01:36;;;;;;;18.77;10.80;;;;;;;10.20;59.01;101336.66;5002759;28;20205;-74
2022/04/21 00:04:01;;;;;;;19.65;11.70;;;;;;;10.15;59.08;101334.72;4999030;28;20031;-73
2022/04/21 00:06:27;;;;;;;18.10;10.30;;;;;;;10.14;59.32;101332.94;5000081;28;20431;-74
2022/04/21 00:08:52;;;;;;;20.20;10.93;;;;;;;10.13;59.00;101332.06;5002415;28;20157;-74
2022/04/21 00:11:17;;;;;;;18.45;11.07;;;;;;;10.14;58.96;101328.66;5001374;28;20039;-73
2022/04/21 00:13:43;;;;;;;18.85;11.15;;;;;;;10.13;59.26;101329.47;5001391;28;20034;-74
2022/04/21 00:16:08;;;;;;;21.42;11.27;;;;;;;10.06;58.92;101324.88;5001093;28;20320;-74
2022/04/21 00:18:33;;;;;;;17.02;10.52;;;;;;;10.03;58.96;101327.41;5000371;28;20026;-74
2022/04/21 00:20:59;;;;;;;22.73;11.10;;;;;;;10.01;59.85;101326.47;5017173;28;20034;-74
2022/04/21 00:23:28;;;;;;;17.63;10.20;;;;;;;9.99;59.29;101334.19;5002217;28;20029;-74
2022/04/21 00:25:59;;;;;;;17.95;10.82;;;;;;;9.96;59.17;101328.03;4998961;28;20030;-74
2022/04/21 00:28:25;;;;;;;21.13;10.68;;;;;;;9.94;59.57;101325.38;4998987;28;20023;-74
2022/04/21 00:30:51;;;;;;;15.32;9.77;;;;;;;9.94;59.35;101321.88;5001626;28;20038;-74
2022/04/21 00:33:16;;;;;;;17.38;10.13;;;;;;;9.92;59.71;101327.91;5000212;28;20046;-74
2022/04/21 00:35:42;;;;;;;15.32;9.80;;;;;;;9.87;59.58;101321.66;4999033;28;20277;-74
2022/04/21 00:38:07;;;;;;;18.13;10.30;;;;;;;9.88;59.67;101331.25;5000904;28;20097;-73
2022/04/21 00:40:32;;;;;;;16.98;10.20;;;;;;;9.85;59.92;101325.06;4998574;28;20042;-74
2022/04/21 00:42:59;;;;;;;17.70;10.55;;;;;;;9.83;59.78;101324.09;4999156;28;20155;-74
2022/04/21 00:45:24;;;;;;;16.67;10.35;;;;;;;9.78;60.13;101317.88;5004997;28;20273;-74
2022/04/21 00:47:52;;;;;;;16.83;10.32;;;;;;;9.74;60.11;101319.47;5004703;28;20042;-74
2022/04/21 00:50:23;;;;;;;18.88;10.05;;;;;;;9.76;59.68;101320.41;5005391;28;20268;-74
2022/04/21 00:52:50;;;;;;;20.10;11.10;;;;;;;9.72;59.92;101318.53;5004200;28;20034;-74
2022/04/21 00:55:16;;;;;;;17.65;10.40;;;;;;;9.68;60.23;101312.34;5004019;28;20403;-74
2022/04/21 00:57:42;;;;;;;16.40;9.90;;;;;;;9.63;60.41;101308.72;5003878;28;20041;-74
2022/04/21 01:00:10;;;;;;;17.38;10.65;;;;;;;9.65;60.18;101312.22;5004128;28;20255;-74
2022/04/21 01:02:49;;;;;;;16.83;10.20;;;;;;;9.63;60.55;101313.00;5003467;28;20057;-74
2022/04/21 01:05:25;;;;;;;14.80;10.02;;;;;;;9.64;60.29;101315.66;4993804;28;20019;-74
2022/04/21 01:07:51;;;;;;;19.15;11.13;;;;;;;9.63;61.04;101318.22;5002448;28;20264;-74
2022/04/21 01:10:16;;;;;;;17.50;10.75;;;;;;;9.62;60.59;101311.25;4992866;28;20149;-74
2022/04/21 01:12:43;;;;;;;18.92;10.90;;;;;;;9.61;60.71;101312.94;5003236;28;20104;-74
2022/04/21 01:15:09;;;;;;;18.95;11.02;;;;;;;9.58;60.54;101318.94;5002215;28;20026;-74
2022/04/21 01:17:36;;;;;;;20.05;11.63;;;;;;;9.51;60.31;101318.66;5005838;28;20077;-74
2022/04/21 01:20:03;;;;;;;18.25;11.40;;;;;;;9.47;60.51;101319.38;5003481;28;20038;-74
2022/04/21 01:22:29;;;;;;;18.98;11.40;;;;;;;9.41;60.87;101317.44;5004889;28;20045;-74
2022/04/21 01:24:55;;;;;;;20.27;11.60;;;;;;;9.42;61.10;101316.63;5005284;28;20085;-74
2022/04/21 01:27:22;;;;;;;18.23;11.65;;;;;;;9.40;61.09;101315.69;5001989;28;20026;-74
2022/04/21 01:29:48;;;;;;;19.85;11.57;;;;;;;9.43;61.03;101312.28;5005260;28;20062;-74
2022/04/21 01:32:13;;;;;;;17.73;11.23;;;;;;;9.38;61.19;101307.84;5001559;28;20089;-74
2022/04/21 01:34:38;;;;;;;18.38;11.68;;;;;;;9.37;60.99;101305.16;5004409;28;20042;-74
2022/04/21 01:42:32;;;;;;;20.17;11.55;;;;;;;9.28;61.46;101299.63;5003391;28;21341;-74
2022/04/21 01:44:57;;;;;;;17.38;11.25;;;;;;;9.27;61.22;101303.06;5004293;28;20034;-74
2022/04/21 01:47:22;;;;;;;20.00;12.10;;;;;;;9.28;60.92;101302.25;5004948;28;20069;-74
2022/04/21 01:49:47;;;;;;;18.98;11.77;;;;;;;9.28;60.87;101297.03;5003390;28;20030;-74
2022/04/21 01:52:13;;;;;;;19.00;11.75;;;;;;;9.18;62.50;101299.31;5003507;28;20053;-74
2022/04/21 01:54:39;;;;;;;18.58;11.98;;;;;;;9.08;62.18;101301.50;5002870;28;20033;-73
2022/04/21 01:57:04;;;;;;;18.67;11.55;;;;;;;8.96;62.34;101295.00;5003697;28;20026;-74
2022/04/21 01:59:30;;;;;;;18.00;11.80;;;;;;;8.94;62.07;101303.59;4998967;28;20022;-74
2022/04/21 02:01:55;;;;;;;18.98;12.23;;;;;;;8.92;62.39;101305.25;5003759;28;20027;-74
2022/04/21 02:04:20;;;;;;;18.95;11.23;;;;;;;8.94;62.61;101303.59;5001028;28;20287;-74
2022/04/21 02:06:45;;;;;;;19.38;11.85;;;;;;;8.93;62.56;101299.22;5001651;28;20026;-74
2022/04/21 02:09:11;;;;;;;19.00;11.18;;;;;;;8.95;62.63;101300.16;5003791;28;20034;-74
2022/04/21 02:11:36;;;;;;;20.48;12.07;;;;;;;8.96;62.25;101299.34;5003034;28;20088;-74
2022/04/21 02:14:01;;;;;;;19.73;11.70;;;;;;;8.96;62.00;101299.34;5002972;28;20061;-73
2022/04/21 02:16:27;;;;;;;18.92;12.48;;;;;;;8.92;62.01;101305.25;5002880;28;20026;-73
2022/04/21 02:18:52;;;;;;;19.48;11.73;;;;;;;8.92;61.74;101305.25;5002310;28;20261;-73
2022/04/21 02:21:17;;;;;;;19.48;11.95;;;;;;;8.92;62.04;101300.03;5003343;28;20061;-73
2022/04/21 02:23:42;;;;;;;19.15;11.85;;;;;;;8.88;61.77;101304.25;4999707;28;20355;-74
2022/04/21 02:26:08;;;;;;;19.55;12.00;;;;;;;8.87;62.03;101300.75;5001591;28;20034;-73
2022/04/21 02:28:33;;;;;;;18.73;11.77;;;;;;;8.81;62.28;101302.25;5003455;28;20085;-74
2022/04/21 02:30:58;;;;;;;17.77;11.93;;;;;;;8.80;62.52;101296.16;5001808;28;20041;-74
2022/04/21 02:33:23;;;;;;;20.05;12.10;;;;;;;8.80;62.69;101303.06;5001868;28;20030;-74
2022/04/21 02:35:49;;;;;;;18.00;11.70;;;;;;;8.80;62.60;101300.47;5003041;28;20238;-74
2022/04/21 02:38:14;;;;;;;18.42;11.35;;;;;;;8.76;62.47;101299.50;5002535;28;20037;-74
2022/04/21 02:40:39;;;;;;;20.48;11.82;;;;;;;8.75;62.33;101291.59;5001258;28;20285;-74
2022/04/21 02:43:07;;;;;;;18.80;12.48;;;;;;;8.74;62.18;101300.25;5002937;28;20042;-74
2022/04/21 02:45:35;;;;;;;17.08;10.93;;;;;;;8.72;62.63;101294.09;5000978;28;20208;-74
2022/04/21 02:48:00;;;;;;;17.45;11.32;;;;;;;8.69;62.36;101297.47;5000171;28;20065;-74
2022/04/21 02:50:25;;;;;;;19.70;12.20;;;;;;;8.66;62.76;101299.94;5003773;28;20023;-74
2022/04/21 02:52:52;;;;;;;21.77;12.05;;;;;;;8.65;62.48;101292.97;5002390;28;20301;-74
2022/04/21 02:58:01;;;;;;;18.42;11.68;;;;;;;8.55;62.99;101301.25;5002692;28;20034;-74
2022/04/21 03:00:26;;;;;;;16.20;11.10;;;;;;;8.48;63.04;101302.72;5000638;28;20038;-74
2022/04/21 03:02:52;;;;;;;19.90;11.43;;;;;;;8.43;63.11;101299.91;5001724;28;20037;-74
2022/04/21 03:05:17;;;;;;;19.17;12.02;;;;;;;8.43;63.33;101299.91;5002852;28;20108;-74
2022/04/21 03:07:43;;;;;;;18.42;11.57;;;;;;;8.42;63.06;101297.25;5000455;28;20037;-74
2022/04/21 03:10:09;;;;;;;20.90;12.02;;;;;;;8.41;63.17;101290.28;4999718;28;20232;-74
2022/04/21 03:12:34;;;;;;;16.08;11.02;;;;;;;8.41;64.12;101285.06;5003182;28;20105;-74
2022/04/21 03:14:59;;;;;;;18.33;11.40;;;;;;;8.39;64.22;101287.63;5002844;28;20304;-74
2022/04/21 03:17:25;;;;;;;18.17;10.80;;;;;;;8.37;63.86;101284.06;5001317;28;20033;-74
2022/04/21 03:19:50;;;;;;;17.52;10.85;;;;;;;8.32;63.47;101289.06;5002984;28;20050;-74
2022/04/21 03:25:02;;;;;;;19.90;11.75;;;;;;;8.26;63.38;101291.44;5003277;28;20275;-73
2022/04/21 03:27:29;;;;;;;18.70;10.52;;;;;;;8.26;63.57;101290.56;5000963;28;20094;-73
2022/04/21 03:29:57;;;;;;;17.15;10.77;;;;;;;8.18;63.64;101293.72;5001149;28;20054;-73
2022/04/21 03:32:22;;;;;;;17.42;10.45;;;;;;;8.17;64.37;101296.25;5000802;28;20038;-73
2022/04/21 03:34:48;;;;;;;16.73;10.63;;;;;;;8.06;64.13;101292.34;5001174;28;20064;-73
2022/04/21 03:37:14;;;;;;;16.45;10.98;;;;;;;7.98;64.57;101294.59;5001324;28;20173;-75
2022/04/21 03:39:41;;;;;;;13.52;9.77;;;;;;;7.95;64.51;101294.47;5002399;28;20046;-75
2022/04/21 03:42:16;;;;;;;17.95;9.95;;;;;;;7.91;64.31;101296.06;5001862;28;20029;-75
2022/04/21 03:44:42;;;;;;;18.30;10.35;;;;;;;7.88;64.18;101295.94;5002704;28;20026;-75
2022/04/21 03:47:08;;;;;;;17.13;10.63;;;;;;;7.86;64.32;101301.88;5002067;28;20038;-75
2022/04/21 03:49:33;;;;;;;16.60;10.45;;;;;;;7.88;64.59;101301.13;5002765;28;20030;-75
2022/04/21 03:51:58;;;;;;;19.58;11.13;;;;;;;7.85;64.49;101298.41;5002003;28;20256;-75
2022/04/21 03:54:26;;;;;;;15.90;10.88;;;;;;;7.82;64.47;101301.75;5001232;28;20162;-75
2022/04/21 03:56:52;;;;;;;15.93;10.50;;;;;;;7.80;64.29;101300.78;5000366;28;20023;-75
2022/04/21 03:59:18;;;;;;;14.43;9.70;;;;;;;7.79;64.27;101304.22;5001515;28;20026;-75
2022/04/21 04:01:44;;;;;;;16.67;10.18;;;;;;;7.81;64.61;101299.97;5002257;28;20233;-75
2022/04/21 04:04:10;;;;;;;15.20;9.98;;;;;;;7.82;64.59;101309.53;5003158;28;20089;-75
2022/04/21 04:12:03;;;;;;;17.48;10.50;;;;;;;7.81;64.21;101301.69;4990642;28;20176;-74
2022/04/21 04:14:29;;;;;;;17.73;10.75;;;;;;;7.75;65.21;101302.31;5001650;28;20034;-74
2022/04/21 04:16:55;;;;;;;19.13;10.73;;;;;;;7.60;65.86;101299.97;4997633;28;20026;-74
2022/04/21 04:19:20;;;;;;;16.27;10.85;;;;;;;7.48;66.53;101297.72;4999355;28;20030;-73
2022/04/21 04:21:45;;;;;;;19.42;10.25;;;;;;;7.49;65.32;101289.13;5001074;28;20117;-73
2022/04/21 04:24:11;;;;;;;17.10;10.75;;;;;;;7.54;65.56;101296.22;4998670;28;20026;-73
2022/04/21 04:26:36;;;;;;;18.00;10.43;;;;;;;7.52;65.52;101293.56;5000566;28;20341;-74
2022/04/21 04:29:03;;;;;;;17.90;10.93;;;;;;;7.52;65.12;101296.16;5015728;28;20150;-73
2022/04/21 04:31:29;;;;;;;17.45;10.70;;;;;;;7.50;65.84;101297.78;4999584;28;20104;-74
2022/04/21 04:33:54;;;;;;;18.55;10.70;;;;;;;7.48;65.58;101300.31;4998329;28;20022;-73
2022/04/21 04:36:19;;;;;;;20.60;10.57;;;;;;;7.47;65.90;101301.16;5001852;28;21035;-74
2022/04/21 04:38:45;;;;;;;16.25;10.15;;;;;;;7.51;65.87;101312.53;4998338;28;20176;-74
2022/04/21 04:43:55;;;;;;;20.23;10.45;;;;;;;7.48;66.21;101309.81;4994478;28;20037;-75
2022/04/21 04:46:37;;;;;;;20.40;10.80;;;;;;;7.48;66.11;101310.69;5002056;28;20022;-75
2022/04/21 04:49:06;;;;;;;18.85;10.90;;;;;;;7.46;65.73;101314.91;4999809;28;20031;-75
2022/04/21 04:51:33;;;;;;;16.83;10.55;;;;;;;7.47;66.14;101311.50;5001984;28;20030;-75
2022/04/21 04:53:59;;;;;;;18.65;10.38;;;;;;;7.46;66.44;101311.44;4999795;28;20192;-75
2022/04/21 04:56:27;;;;;;;17.63;11.10;;;;;;;7.49;66.21;101315.06;4999856;28;20054;-75
2022/04/21 04:58:52;;;;;;;17.10;10.57;;;;;;;7.49;66.24;101317.63;4999093;28;20069;-75
2022/04/21 05:01:30;;;;;;;17.25;10.13;;;;;;;7.49;65.71;101309.88;5001265;28;20023;-75
2022/04/21 05:04:25;;;;;;;17.33;10.77;;;;;;;7.55;65.50;101318.75;5001519;28;20038;-75
2022/04/21 05:06:53;;;;;;;18.40;10.63;;;;;;;7.53;66.08;101310.91;4994552;28;20035;-75
2022/04/21 05:09:23;;;;;;;19.73;10.75;;;;;;;7.53;66.37;101310.00;5000540;28;20026;-75
2022/04/21 05:11:53;;;;;;;19.13;10.25;;;;;;;7.53;66.45;101308.31;5000725;28;20031;-75
2022/04/21 05:14:20;;;;;;;18.42;11.13;;;;;;;7.50;66.89;101310.75;5000976;28;20043;-75
2022/04/21 05:16:45;;;;;;;18.05;10.90;;;;;;;7.54;66.42;101309.19;5000795;28;20296;-75
2022/04/21 05:19:13;;;;;;;19.80;10.73;;;;;;;7.54;66.72;101309.19;5000433;28;20085;-75
2022/04/21 05:21:39;;;;;;;17.98;10.48;;;;;;;7.54;66.26;101310.06;4999859;28;20049;-75
2022/04/21 05:24:07;;;;;;;16.98;10.70;;;;;;;7.55;66.27;101298.88;5000489;28;20068;-75
2022/04/21 05:26:33;;;;;;;18.02;11.07;;;;;;;7.59;66.48;101305.06;5001289;28;20049;-75
2022/04/21 05:31:46;;;;;;;17.52;11.63;;;;;;;7.56;66.51;101304.94;5003669;28;20073;-75
2022/04/21 05:34:12;;;;;;;21.38;11.85;;;;;;;7.56;66.53;101300.66;5005064;28;20030;-75
2022/04/21 05:36:37;;;;;;;21.73;12.38;;;;;;;7.62;66.34;101306.09;5003070;28;20340;-75
2022/04/21 05:39:03;;;;;;;21.13;12.88;;;;;;;7.65;66.24;101306.22;5001664;28;20093;-75
2022/04/21 05:41:29;;;;;;;20.95;13.02;;;;;;;7.67;66.07;101308.88;5004068;28;20205;-75
2022/04/21 05:43:55;;;;;;;22.08;12.98;;;;;;;7.71;66.68;101305.59;5003733;28;20277;-75
2022/04/21 05:46:20;;;;;;;20.90;12.70;;;;;;;7.75;66.41;101304.00;5004452;28;20054;-74
2022/04/21 05:48:46;;;;;;;21.17;11.93;;;;;;;7.77;67.20;101311.03;5002311;28;20268;-74
2022/04/21 05:51:12;;;;;;;20.48;11.80;;;;;;;7.76;67.01;101306.69;5003849;28;20085;-74
2022/04/21 05:53:39;;;;;;;20.05;11.65;;;;;;;7.76;67.35;101305.78;5001118;28;20034;-74
2022/04/21 05:56:08;;;;;;;19.73;11.50;;;;;;;7.80;67.35;101310.28;4994679;28;20325;-74
2022/04/21 05:58:36;;;;;;;21.90;12.27;;;;;;;7.83;67.29;101300.94;5002692;28;20026;-74
2022/04/21 06:01:04;;;;;;;18.52;11.88;;;;;;;7.90;67.19;101304.66;5003197;28;20033;-74
2022/04/21 06:03:30;;;;;;;19.73;12.10;;;;;;;7.98;68.14;101312.75;5004213;28;20137;-74
2022/04/21 06:05:55;;;;;;;21.13;11.93;;;;;;;8.01;67.81;101308.59;5004339;28;20026;-74
2022/04/21 06:08:20;;;;;;;19.08;11.80;;;;;;;8.07;68.03;101307.97;5002399;28;20029;-74
2022/04/21 06:10:46;;;;;;;21.17;11.52;;;;;;;8.13;67.61;101307.34;5001109;28;20026;-74
2022/04/21 06:13:15;;;;;;;21.92;12.05;;;;;;;8.18;67.14;101311.00;5003399;28;20300;-74
2022/04/21 06:15:40;;;;;;;21.92;12.18;;;;;;;8.22;67.47;101305.09;5003813;28;20291;-74
2022/04/21 06:18:06;;;;;;;21.35;12.32;;;;;;;8.30;67.27;101313.22;5004078;28;20034;-75
2022/04/21 06:20:31;;;;;;;20.85;11.93;;;;;;;8.36;67.36;101308.28;5003011;28;20050;-75
2022/04/21 06:22:57;;;;;;;19.42;11.98;;;;;;;8.45;66.86;101303.47;5002693;28;20299;-75
2022/04/21 06:25:23;;;;;;;18.30;12.02;;;;;;;8.55;66.52;101306.44;5001886;28;20077;-75
2022/04/21 06:27:49;;;;;;;18.08;12.27;;;;;;;8.65;66.13;101305.97;5003640;28;20034;-75
2022/04/21 06:30:15;;;;;;;20.55;12.50;;;;;;;9.23;65.57;101289.06;5004481;28;20105;-75
2022/04/21 06:32:41;;;;;;;21.95;12.57;;;;;;;12.14;57.82;101291.81;5002929;28;20335;-75
2022/04/21 06:35:07;;;;;;;23.35;12.27;;;;;;;15.51;49.64;101287.22;5002838;28;20073;-75
2022/04/21 06:37:32;;;;;;;22.17;12.57;;;;;;;18.33;42.37;101289.44;5001550;28;20050;-75
2022/04/21 06:39:58;;;;;;;19.20;11.18;;;;;;;20.69;37.25;101282.75;5001736;28;20053;-75
2022/04/21 06:42:23;;;;;;;19.00;11.43;;;;;;;22.44;33.34;101274.91;5004214;28;20184;-75
2022/04/21 06:50:16;;;;;;;19.55;11.88;;;;;;;22.28;31.92;101264.53;5002749;28;20098;-75
2022/04/21 06:52:41;;;;;;;20.98;12.82;;;;;;;20.43;34.38;101283.00;5001406;28;20026;-75
2022/04/21 06:55:07;;;;;;;25.13;13.88;;;;;;;18.85;36.95;101277.88;5001859;28;20030;-75
2022/04/21 06:57:33;;;;;;;23.40;13.60;;;;;;;17.64;40.44;101279.72;4996551;28;20312;-75
2022/04/21 06:59:58;;;;;;;25.08;13.95;;;;;;;16.62;43.28;101274.09;5001086;28;20284;-75
2022/04/21 07:02:37;;;;;;;27.55;14.07;;;;;;;15.82;44.35;101277.03;5001518;28;20089;-74
2022/04/21 07:05:07;;;;;;;25.30;15.23;;;;;;;15.21;45.97;101279.88;5002413;28;20056;-75
2022/04/21 07:07:33;;;;;;;21.92;14.23;;;;;;;14.74;46.27;101275.78;5001358;28;20026;-75
2022/04/21 07:09:58;;;;;;;27.27;15.43;;;;;;;14.41;48.23;101275.31;5002520;28;20308;-75
2022/04/21 07:12:30;;;;;;;27.38;14.77;;;;;;;14.08;47.16;101279.16;5000515;28;20042;-75
2022/04/21 07:15:00;;;;;;;29.55;14.90;;;;;;;13.78;47.01;101278.66;5001332;28;20956;-75
2022/04/21 07:17:25;;;;;;;27.42;15.43;;;;;;;13.58;48.78;101273.94;4999970;28;20392;-75
2022/04/21 07:19:51;;;;;;;29.15;15.88;;;;;;;13.42;49.38;101282.38;5002462;28;20030;-74
2022/04/21 07:22:20;;;;;;;28.70;16.20;;;;;;;13.29;51.45;101276.00;5000766;28;20045;-75
2022/04/21 07:24:49;;;;;;;;;;;;;;;13.31;50.43;101283.03;5003734;28;20077;-74
2022/04/21 07:27:14;;;;;;;26.83;15.23;;;;;;;13.20;50.92;101279.31;5002599;28;19961;-73
2022/04/21 07:29:39;;;;;;;27.83;14.55;;;;;;;13.13;51.04;101274.81;5002948;28;20045;-74
2022/04/21 07:32:05;;;;;;;25.90;14.23;;;;;;;13.09;50.22;101289.53;5003503;28;20022;-74
2022/04/21 07:34:30;;;;;;;25.38;14.80;;;;;;;13.05;51.19;101293.84;5002363;28;20026;-73
2022/04/21 07:36:56;;;;;;;27.77;15.52;;;;;;;13.07;52.42;101293.00;5001907;28;20030;-73
2022/04/21 07:39:21;;;;;;;27.50;15.32;;;;;;;13.09;52.00;101296.53;5000100;28;20022;-75
2022/04/21 07:41:47;;;;;;;28.17;16.67;;;;;;;13.11;53.45;101290.47;5003263;28;20022;-74
2022/04/21 07:44:12;;;;;;;28.98;15.35;;;;;;;13.15;53.45;101294.03;5003419;28;20030;-74
2022/04/21 07:46:37;;;;;;;25.23;15.10;;;;;;;13.18;52.35;101296.72;5003508;28;20232;-74
2022/04/21 07:51:46;;;;;;;25.38;15.05;;;;;;;13.27;53.00;101289.03;4992430;28;20029;-74
2022/04/21 07:54:12;;;;;;;26.10;15.50;;;;;;;13.30;53.40;101289.09;5002477;28;20089;-74
2022/04/21 07:56:37;;;;;;;26.35;15.00;;;;;;;13.33;50.67;101286.53;5003170;28;20049;-74
2022/04/21 07:59:03;;;;;;;24.90;14.13;;;;;;;13.36;51.87;101281.41;5000935;28;20173;-73
2022/04/21 08:01:28;;;;;;;24.60;15.25;;;;;;;13.43;54.03;101287.63;5002106;28;20022;-73
2022/04/21 08:03:54;;;;;;;27.92;14.88;;;;;;;13.51;52.69;101288.69;5003255;28;20209;-73
2022/04/21 08:06:19;;;;;;;24.98;15.23;;;;;;;13.59;52.35;101282.69;5002858;28;21371;-73
2022/04/21 08:08:44;;;;;;;25.67;14.73;;;;;;;13.66;52.71;101288.06;5003188;28;20033;-73
2022/04/21 08:11:09;;;;;;;26.48;14.30;;;;;;;13.69;51.34;101285.50;5003094;28;20038;-73
2022/04/21 08:13:35;;;;;;;24.17;14.43;;;;;;;13.76;54.77;101285.59;5002002;28;20296;-73
2022/04/21 08:16:00;;;;;;;23.98;14.20;;;;;;;13.82;54.38;101285.72;5001242;28;20049;-73
2022/04/21 08:18:26;;;;;;;23.67;14.13;;;;;;;13.89;53.14;101288.47;5000337;28;20088;-74
2022/04/21 08:20:58;;;;;;;24.00;14.15;;;;;;;13.97;52.62;101291.22;4999757;28;20384;-73
2022/04/21 08:23:25;;;;;;;23.67;14.45;;;;;;;14.04;53.44;101281.72;5001802;28;20018;-74
2022/04/21 08:34:24;;;;;;;24.17;13.30;;;;;;;14.11;51.87;101288.81;5009316;28;20157;-74
2022/04/21 08:36:50;;;;;;;21.63;12.65;;;;;;;14.11;51.07;101298.41;5002190;28;20042;-73
2022/04/21 08:39:15;;;;;;;20.80;12.60;;;;;;;14.06;51.92;101296.63;5002933;28;20049;-74
2022/04/21 08:41:47;;;;;;;22.10;12.50;;;;;;;14.13;53.05;101294.09;5000902;28;20277;-73
2022/04/21 08:44:17;;;;;;;23.90;13.63;;;;;;;14.21;52.47;101292.47;5001892;28;20030;-73
2022/04/21 08:46:45;;;;;;;24.77;12.80;;;;;;;14.27;51.44;101289.94;5003022;28;20030;-73
2022/04/21 08:49:14;;;;;;;22.63;13.73;;;;;;;14.32;52.69;101288.25;5002812;28;20201;-73
2022/04/21 08:51:39;;;;;;;19.25;12.15;;;;;;;14.38;52.42;101288.38;5002134;28;20026;-73
2022/04/21 08:54:05;;;;;;;20.15;12.43;;;;;;;14.47;53.36;101278.88;5002546;28;20172;-73
2022/04/21 08:56:30;;;;;;;19.92;12.55;;;;;;;14.53;50.75;101278.97;5002645;28;20272;-73
2022/04/21 08:58:56;;;;;;;21.85;11.18;;;;;;;14.59;52.18;101276.44;4999912;28;20026;-73
2022/04/21 09:01:22;;;;;;;19.25;11.75;;;;;;;14.64;50.35;101273.91;5002897;28;20030;-73
2022/04/21 09:03:48;;;;;;;21.02;11.80;;;;;;;14.72;51.92;101275.75;5003197;28;20089;-73
2022/04/21 09:06:13;;;;;;;18.13;10.57;;;;;;;14.81;51.28;101271.50;5006724;28;20201;-73
2022/04/21 09:08:39;;;;;;;15.90;10.05;;;;;;;14.85;49.52;101268.94;5005517;28;20088;-73
2022/04/21 09:11:09;;;;;;;14.57;9.02;;;;;;;14.90;49.87;101264.66;5005548;28;20102;-73
2022/04/21 09:13:39;;;;;;;16.83;9.45;;;;;;;14.96;49.49;101261.19;5006152;28;20274;-73
2022/04/21 09:16:07;;;;;;;13.07;8.88;;;;;;;15.04;49.96;101259.56;5006380;28;20149;-73
2022/04/21 09:18:43;;;;;;;16.52;7.72;;;;;;;15.15;49.58;101267.56;5005398;28;20136;-73
2022/04/21 09:21:16;;;;;;;13.70;8.18;;;;;;;15.25;51.28;101263.28;5006247;28;20133;-73
2022/04/21 09:23:43;;;;;;;14.50;7.82;;;;;;;15.29;48.75;101254.56;5005212;28;20041;-79
2022/04/21 09:26:14;;;;;;;17.73;9.25;;;;;;;15.38;50.26;101259.94;5005667;28;20053;-80
2022/04/21 09:28:39;;;;;;;12.98;7.30;;;;;;;15.48;47.40;101261.78;5003510;28;20022;-80
2022/04/21 09:31:09;;;;;;;13.00;8.25;;;;;;;15.55;47.02;101261.84;5004711;28;20030;-80
2022/04/21 09:33:44;;;;;;;13.95;8.27;;;;;;;15.60;48.35;101262.78;5001002;28;20022;-80
2022/04/21 09:36:10;;;;;;;13.07;8.82;;;;;;;15.68;49.39;101252.34;5003086;28;20027;-80
2022/04/21 09:38:36;;;;;;;14.48;8.18;;;;;;;15.72;46.02;101254.13;5005677;28;20081;-80
2022/04/21 09:41:12;;;;;;;17.80;8.45;;;;;;;15.76;47.60;101251.53;5006420;28;20029;-80
2022/04/21 09:43:39;;;;;;;11.68;7.70;;;;;;;15.76;45.58;101251.53;4999934;28;20038;-80
2022/04/21 09:46:13;;;;;;;12.85;7.63;;;;;;;15.77;46.22;101252.41;5022064;28;20268;-81
2022/04/21 09:48:39;;;;;;;12.73;7.43;;;;;;;15.84;48.23;101250.75;4995821;28;20231;-80
2022/04/21 09:51:11;;;;;;;13.02;7.40;;;;;;;15.91;46.33;101258.69;5004733;28;20041;-81
2022/04/21 09:53:53;;;;;;;12.80;6.85;;;;;;;15.93;45.57;101253.44;4995600;28;20042;-81
2022/04/21 09:56:38;;;;;;;11.43;6.40;;;;;;;15.94;43.81;101249.97;5004088;28;20094;-82
2022/04/21 09:59:07;;;;;;;11.38;7.10;;;;;;;16.00;46.21;101244.75;4998182;28;20314;-82
2022/04/21 10:01:35;;;;;;;;;;;;;;;16.08;46.95;101242.19;5004636;28;20025;-83
2022/04/21 10:04:08;;;;;;;8.75;5.53;;;;;;;16.10;40.75;101233.44;5004511;28;19909;-82
2022/04/21 10:06:36;;;;;;;9.63;5.30;;;;;;;16.11;41.44;101235.19;5003210;28;20038;-82
2022/04/21 10:09:01;;;;;;;11.68;5.38;;;;;;;16.13;42.52;101224.69;5003583;28;20026;-82
2022/04/21 10:11:28;;;;;;;9.77;5.40;;;;;;;16.19;43.52;101229.09;5004394;28;20033;-81
2022/04/21 10:13:55;;;;;;;9.30;4.80;;;;;;;16.27;41.37;101224.78;5003287;28;20026;-82
2022/04/21 10:16:28;;;;;;;8.07;4.68;;;;;;;16.38;42.89;101219.56;5003386;28;20042;-82
2022/04/21 10:18:55;;;;;;;7.20;4.25;;;;;;;16.46;40.84;101218.75;5002883;28;20030;-83
2022/04/21 10:21:31;;;;;;;6.20;4.13;;;;;;;16.54;41.77;101221.44;5001857;28;20307;-84
2022/04/21 10:23:57;;;;;;;7.38;4.90;;;;;;;16.62;41.11;101213.56;5000277;28;20026;-84
2022/04/21 10:26:42;;;;;;;7.55;4.18;;;;;;;16.60;38.87;101215.34;5002563;28;20280;-84
2022/04/21 10:29:18;;;;;;;6.40;4.30;;;;;;;16.58;37.68;101201.28;5003360;28;20042;-84
2022/04/21 10:31:43;;;;;;;5.80;3.80;;;;;;;16.54;35.14;101207.38;5002226;28;20073;-84
2022/04/21 10:34:09;;;;;;;7.43;4.20;;;;;;;16.51;37.26;101211.78;5002757;28;20314;-83
2022/04/21 10:36:41;;;;;;;7.18;3.78;;;;;;;16.57;40.39;101197.78;5004542;28;20305;-83
2022/04/21 10:39:16;;;;;;;8.02;4.82;;;;;;;16.63;39.85;101202.19;5002180;28;20030;-83
2022/04/21 10:41:41;;;;;;;6.38;3.80;;;;;;;16.72;39.43;101194.31;5000973;28;20212;-87
2022/04/21 10:44:26;;;;;;;6.43;3.75;;;;;;;16.81;38.71;101198.72;4996014;28;20057;-87
2022/04/21 10:47:26;;;;;;;7.07;3.85;;;;;;;16.91;40.96;101195.28;4990402;28;20047;-87
2022/04/21 10:50:00;;;;;;;7.43;3.60;;;;;;;16.97;39.06;101183.91;5002923;28;20038;-86
2022/04/21 10:58:47;;;;;;;6.70;3.30;;;;;;;17.13;38.21;101177.81;5001946;28;20080;-83
2022/04/21 11:01:14;;;;;;;8.77;3.13;;;;;;;17.16;37.84;101179.56;4998814;28;20026;-82
2022/04/21 11:03:41;;;;;;;4.28;3.28;;;;;;;17.29;37.41;101180.44;4998967;28;20528;-83
2022/04/21 11:06:10;;;;;;;7.72;3.28;;;;;;;17.38;36.88;101185.75;5001802;28;20030;-82
2022/04/21 11:08:36;;;;;;;6.35;3.78;;;;;;;17.40;34.96;101173.44;5003224;28;20030;-80
2022/04/21 11:11:03;;;;;;;5.57;3.50;;;;;;;17.48;38.57;101176.97;5002804;28;20050;-83
2022/04/21 11:14:03;;;;;;;6.95;4.00;;;;;;;17.58;38.04;101179.59;5001889;28;20308;-83
2022/04/21 11:16:48;;;;;;;6.50;3.72;;;;;;;17.65;37.29;101170.81;5002785;28;20037;-83
2022/04/21 11:19:29;;;;;;;6.78;3.70;;;;;;;17.70;36.64;101172.56;5001472;28;20178;-85
2022/04/21 11:21:59;;;;;;;7.10;3.58;;;;;;;17.77;37.26;101167.28;5001686;28;20034;-80
2022/04/21 11:24:28;;;;;;;7.72;3.90;;;;;;;17.81;36.42;101164.63;5000493;28;20026;-79
2022/04/21 11:26:57;;;;;;;8.47;3.87;;;;;;;17.87;37.21;101154.09;4998581;28;20029;-80
2022/04/21 11:29:23;;;;;;;5.82;3.25;;;;;;;17.80;32.71;101154.09;5001445;28;20356;-80
2022/04/21 11:31:56;;;;;;;11.32;4.32;;;;;;;17.70;35.34;101150.63;4999597;28;20019;-81
2022/04/21 11:34:22;;;;;;;19.85;11.40;;;;;;;17.64;34.83;101150.59;5001746;28;20038;-81
2022/04/21 11:36:48;;;;;;;8.32;4.32;;;;;;;17.67;36.36;101137.41;5000890;28;20301;-81
2022/04/21 11:39:14;;;;;;;6.03;3.60;;;;;;;17.75;35.28;101138.28;5003155;28;20022;-81
2022/04/21 11:41:52;;;;;;;5.30;3.65;;;;;;;17.84;35.22;101135.66;5001144;28;20030;-81
2022/04/21 11:44:25;;;;;;;7.30;3.42;;;;;;;17.93;36.82;101131.25;5002614;28;20296;-81
2022/04/21 11:46:51;;;;;;;6.47;4.00;;;;;;;18.02;37.53;101141.81;5001665;28;20072;-81
2022/04/21 11:49:16;;;;;;;5.82;3.72;;;;;;;18.04;36.32;101124.22;4998764;28;20081;-81
2022/04/21 11:51:42;;;;;;;5.22;4.07;;;;;;;18.10;37.66;101124.19;4999907;28;20018;-81
2022/04/21 11:54:10;;;;;;;6.50;4.20;;;;;;;18.18;35.67;101127.69;4993328;28;20044;-81
2022/04/21 11:56:36;;;;;;;5.13;3.85;;;;;;;18.25;36.92;101128.56;5000204;28;20033;-81
2022/04/21 11:59:09;;;;;;;8.40;3.90;;;;;;;18.28;35.52;101128.53;4998866;28;20081;-81
2022/04/21 12:07:14;;;;;;;5.53;3.78;;;;;;;18.50;35.19;101123.16;4998725;28;20092;-73
2022/04/21 12:09:41;;;;;;;6.55;3.50;;;;;;;18.57;35.18;101128.41;4996308;28;20022;-73